Time;durP1;ratioP1;P1;durP2;ratioP2;P2;SDS_P1;SDS_P2;PMS_P1;PMS_P2;Temp;Humidity;BMP_temperature;BMP_pressure;BME280_temperature;BME280_humidity;BME280_pressure;Samples;Min_cycle;Max_cycle;Signal;HPM_P1;HPM_P2
2023/10/05 00:01:24;;;;;;;0.10;0.10;;;;;;;10.46;100.00;99997.59;5116287;28;20253;-57
2023/10/05 00:04:15;;;;;;;0.20;0.20;;;;;;;10.50;100.00;99992.06;5117457;28;20197;-57
2023/10/05 00:07:05;;;;;;;0.20;0.20;;;;;;;10.69;100.00;99991.97;5117362;28;20197;-57
2023/10/05 00:09:55;;;;;;;0.10;0.10;;;;;;;10.60;100.00;99992.44;5116875;28;20218;-57
2023/10/05 00:12:42;;;;;;;0.10;0.10;;;;;;;10.58;100.00;99986.38;5117166;28;20275;-57
2023/10/05 00:15:31;;;;;;;0.10;0.10;;;;;;;10.73;100.00;99990.91;5117237;28;20202;-57
2023/10/05 00:18:21;;;;;;;0.10;0.10;;;;;;;10.59;100.00;99986.28;5116979;28;20189;-57
2023/10/05 00:21:08;;;;;;;0.10;0.10;;;;;;;10.59;100.00;99977.50;5116748;28;20210;-57
2023/10/05 00:23:58;;;;;;;0.10;0.10;;;;;;;10.62;100.00;99990.59;5116980;28;20241;-58
2023/10/05 00:26:46;;;;;;;0.10;0.10;;;;;;;10.70;100.00;99979.59;5116778;28;20677;-57
2023/10/05 00:29:41;;;;;;;0.10;0.10;;;;;;;10.80;100.00;99980.81;5116924;28;20665;-57
2023/10/05 00:32:34;;;;;;;0.10;0.10;;;;;;;10.77;100.00;99975.69;5115604;28;20191;-57
2023/10/05 00:35:26;;;;;;;0.10;0.10;;;;;;;10.79;100.00;99973.81;5116973;28;20264;-56
2023/10/05 00:38:18;;;;;;;0.10;0.10;;;;;;;10.84;100.00;99975.31;5116793;28;20209;-57
2023/10/05 00:41:08;;;;;;;0.10;0.10;;;;;;;10.78;100.00;99975.63;5116458;28;20222;-57
2023/10/05 00:43:56;;;;;;;0.10;0.10;;;;;;;10.65;100.00;99977.19;5116821;28;20190;-57
2023/10/05 00:46:48;;;;;;;0.10;0.10;;;;;;;10.65;100.00;99976.34;5115375;28;20194;-57
2023/10/05 00:49:45;;;;;;;0.10;0.10;;;;;;;10.52;100.00;99963.72;5116473;28;20271;-57
2023/10/05 00:52:34;;;;;;;0.10;0.10;;;;;;;10.47;100.00;99973.69;5116484;28;20252;-57
2023/10/05 00:55:22;;;;;;;0.10;0.10;;;;;;;10.50;100.00;99964.72;5115417;28;20205;-57
2023/10/05 00:58:14;;;;;;;0.20;0.20;;;;;;;10.41;100.00;99968.69;5116473;28;20190;-57
2023/10/05 01:01:05;;;;;;;0.10;0.10;;;;;;;10.39;100.00;99969.69;5114871;28;20234;-57
2023/10/05 01:04:20;;;;;;;0.20;0.20;;;;;;;10.58;100.00;99978.44;5116218;28;20197;-57
2023/10/05 01:07:17;;;;;;;0.10;0.10;;;;;;;10.50;100.00;99962.91;5115137;28;20193;-57
2023/10/05 01:10:28;;;;;;;0.10;0.10;;;;;;;10.80;100.00;99964.94;5115863;28;20225;-57
2023/10/05 01:13:28;;;;;;;0.20;0.20;;;;;;;10.56;100.00;99953.81;5116247;28;20199;-57
2023/10/05 01:16:19;;;;;;;0.10;0.10;;;;;;;10.51;100.00;99950.53;5114651;28;20198;-57
2023/10/05 01:19:08;;;;;;;0.10;0.10;;;;;;;10.47;100.00;99954.28;5115969;28;20198;-57
2023/10/05 01:21:57;;;;;;;0.10;0.10;;;;;;;10.34;100.00;99955.84;5115975;28;20673;-57
2023/10/05 01:24:46;;;;;;;0.10;0.10;;;;;;;10.17;100.00;99957.50;5115799;28;20272;-57
2023/10/05 01:27:33;;;;;;;0.10;0.10;;;;;;;10.14;100.00;99962.09;5115774;28;20264;-57
2023/10/05 01:30:21;;;;;;;0.10;0.10;;;;;;;10.22;100.00;99954.66;5115720;28;20190;-57
2023/10/05 01:33:09;;;;;;;0.10;0.10;;;;;;;10.25;100.00;99958.00;5115807;28;20664;-57
2023/10/05 01:35:56;;;;;;;0.10;0.10;;;;;;;10.23;100.00;99965.19;5115750;28;20189;-57
2023/10/05 01:38:45;;;;;;;0.10;0.10;;;;;;;10.30;100.00;99965.72;5115651;28;20195;-57
2023/10/05 01:41:33;;;;;;;0.10;0.10;;;;;;;10.29;100.00;99988.69;5115148;28;20218;-57
2023/10/05 01:44:20;;;;;;;0.10;0.10;;;;;;;10.22;100.00;99984.63;5115450;28;20190;-57
2023/10/05 01:47:08;;;;;;;0.10;0.10;;;;;;;10.17;100.00;99983.97;5114276;28;20197;-57
2023/10/05 01:49:54;;;;;;;0.10;0.10;;;;;;;10.31;100.00;99976.22;5115267;28;20289;-57
2023/10/05 01:52:42;;;;;;;0.10;0.10;;;;;;;10.23;100.00;99965.19;5115537;28;20197;-57
2023/10/05 01:55:34;;;;;;;0.10;0.10;;;;;;;188.97;100.00;130436.72;5115218;28;20308;-57
2023/10/05 01:58:34;;;;;;;0.20;0.20;;;;;;;10.21;100.00;99969.63;5114999;28;20197;-57
2023/10/05 02:01:21;;;;;;;0.10;0.10;;;;;;;10.40;100.00;99977.56;5112463;28;20218;-57
2023/10/05 02:04:09;;;;;;;0.10;0.10;;;;;;;10.42;100.00;99973.06;5114989;28;20198;-57
2023/10/05 02:06:56;;;;;;;0.10;0.10;;;;;;;10.46;100.00;99971.13;5114984;28;20194;-57
2023/10/05 02:09:43;;;;;;;0.10;0.10;;;;;;;10.46;100.00;99965.81;5114792;28;20222;-57
2023/10/05 02:12:30;;;;;;;0.10;0.10;;;;;;;10.56;100.00;99969.72;5113958;28;20224;-57
2023/10/05 02:15:19;;;;;;;0.10;0.10;;;;;;;10.42;100.00;99956.28;5113351;28;20198;-56
2023/10/05 02:18:13;;;;;;;0.10;0.10;;;;;;;10.48;100.00;99963.94;5114926;28;20268;-57
2023/10/05 02:21:07;;;;;;;0.10;0.10;;;;;;;10.52;100.00;99960.22;5114612;28;20336;-57
2023/10/05 02:23:57;;;;;;;0.10;0.10;;;;;;;10.73;100.00;99969.72;5113710;28;20198;-57
2023/10/05 02:27:09;;;;;;;0.10;0.10;;;;;;;10.49;100.00;99958.56;5114749;28;20294;-57
2023/10/05 02:29:53;;;;;;;0.10;0.10;;;;;;;10.34;100.00;99967.28;5114510;28;20197;-57
2023/10/05 02:32:43;;;;;;;0.10;0.10;;;;;;;10.57;100.00;99969.63;5113285;28;20285;-57
2023/10/05 02:35:32;;;;;;;0.13;0.13;;;;;;;10.51;100.00;99964.63;5114638;28;20259;-57
2023/10/05 02:38:22;;;;;;;0.10;0.10;;;;;;;10.50;100.00;99968.22;5114547;28;20201;-57
2023/10/05 02:41:09;;;;;;;0.10;0.10;;;;;;;10.56;100.00;99969.72;5114295;28;20328;-57
2023/10/05 02:43:58;;;;;;;0.10;0.10;;;;;;;10.71;100.00;99973.34;5114390;28;20260;-57
2023/10/05 02:46:47;;;;;;;0.10;0.10;;;;;;;10.76;100.00;99969.53;5113018;28;20198;-57
2023/10/05 02:49:40;;;;;;;0.10;0.10;;;;;;;10.56;100.00;99967.06;5113317;28;20194;-58
2023/10/05 02:52:32;;;;;;;0.10;0.10;;;;;;;10.50;100.00;99965.56;5113174;28;20186;-57
2023/10/05 02:55:23;;;;;;;0.10;0.10;;;;;;;10.58;100.00;99971.34;5114038;28;20194;-57
2023/10/05 02:58:13;;;;;;;0.10;0.10;;;;;;;10.58;100.00;99974.00;5114014;28;20201;-57
2023/10/05 03:01:00;;;;;;;0.20;0.20;;;;;;;10.62;100.00;99963.25;5112382;28;20214;-57
2023/10/05 03:03:48;;;;;;;0.10;0.10;;;;;;;10.63;100.00;99960.53;5113886;28;20197;-57
2023/10/05 03:06:36;;;;;;;0.10;0.10;;;;;;;10.67;100.00;99962.06;5112901;28;20564;-57
2023/10/05 03:09:24;;;;;;;0.10;0.10;;;;;;;10.69;100.00;99962.84;5112523;28;20225;-57
2023/10/05 03:12:11;;;;;;;0.10;0.10;;;;;;;10.71;100.00;99965.41;5112808;28;20198;-57
2023/10/05 03:15:04;;;;;;;0.10;0.10;;;;;;;10.77;100.00;99970.41;5112820;28;20267;-57
2023/10/05 03:17:56;;;;;;;0.10;0.10;;;;;;;10.75;100.00;99974.91;5111512;28;20479;-57
2023/10/05 03:20:46;;;;;;;0.10;0.10;;;;;;;10.81;100.00;99977.28;5112541;28;20210;-57
2023/10/05 03:23:35;;;;;;;0.10;0.10;;;;;;;10.77;100.00;99976.56;5113674;28;20194;-57
2023/10/05 03:26:22;;;;;;;0.10;0.10;;;;;;;10.83;100.00;99968.28;5111879;28;20197;-57
2023/10/05 03:29:11;;;;;;;0.10;0.10;;;;;;;10.84;100.00;99971.78;5113612;28;20316;-57
2023/10/05 03:32:12;;;;;;;0.10;0.10;;;;;;;10.87;100.00;99974.28;5112247;28;20305;-57
2023/10/05 03:35:00;;;;;;;0.10;0.10;;;;;;;10.92;100.00;99971.41;5113558;28;20210;-57
2023/10/05 03:37:47;;;;;;;0.10;0.10;;;;;;;10.89;100.00;99973.25;5113623;28;20220;-57
2023/10/05 03:40:36;;;;;;;0.10;0.10;;;;;;;10.86;100.00;99976.06;5112182;28;20202;-57
2023/10/05 03:43:23;;;;;;;0.10;0.10;;;;;;;10.87;100.00;99972.47;5112503;28;20232;-57
2023/10/05 03:46:10;;;;;;;0.10;0.10;;;;;;;10.78;100.00;99966.81;5111211;28;20193;-57
2023/10/05 03:49:01;;;;;;;0.10;0.10;;;;;;;10.73;100.00;99969.72;5112290;28;20214;-57
2023/10/05 03:51:50;;;;;;;0.10;0.10;;;;;;;11.01;100.00;99965.63;5112376;28;20228;-57
2023/10/05 03:54:40;;;;;;;0.20;0.20;;;;;;;10.85;100.00;99962.91;5112230;28;20217;-57
2023/10/05 03:57:31;;;;;;;0.10;0.10;;;;;;;10.76;100.00;99958.94;5113187;28;20186;-57
2023/10/05 04:00:35;;;;;;;0.10;0.10;;;;;;;11.09;100.00;99955.44;5112316;28;20277;-57
2023/10/05 04:03:24;;;;;;;0.10;0.10;;;;;;;10.96;100.00;99951.75;5112233;28;20190;-57
2023/10/05 04:06:17;;;;;;;0.10;0.10;;;;;;;10.73;100.00;99947.66;5113216;28;20190;-57
2023/10/05 04:09:06;;;;;;;0.10;0.10;;;;;;;10.94;100.00;99953.63;5112041;28;20226;-57
2023/10/05 04:11:54;;;;;;;0.10;0.10;;;;;;;10.71;100.00;99949.50;5112994;28;20233;-57
2023/10/05 04:14:42;;;;;;;0.10;0.10;;;;;;;10.76;100.00;99950.13;5113116;28;20259;-57
2023/10/05 04:17:28;;;;;;;0.10;0.10;;;;;;;10.63;100.00;99944.63;5111889;28;20198;-57
2023/10/05 04:20:19;;;;;;;0.10;0.10;;;;;;;10.38;100.00;99939.72;5112956;28;20190;-57
2023/10/05 04:23:07;;;;;;;0.10;0.10;;;;;;;10.31;100.00;99947.09;5112787;28;20225;-57
2023/10/05 04:25:54;;;;;;;0.10;0.10;;;;;;;10.28;100.00;99952.56;5113078;28;20313;-57
2023/10/05 04:28:51;;;;;;;0.10;0.10;;;;;;;10.25;100.00;99955.38;5112765;28;20205;-57
2023/10/05 04:31:40;;;;;;;0.10;0.10;;;;;;;10.20;100.00;99954.69;5111729;28;20198;-57
2023/10/05 04:34:30;;;;;;;0.17;0.17;;;;;;;10.27;100.00;99956.13;5113017;28;20247;-57
2023/10/05 04:37:17;;;;;;;0.10;0.10;;;;;;;10.36;100.00;99964.56;5114207;28;20261;-57
2023/10/05 04:40:09;;;;;;;0.20;0.20;;;;;;;10.48;100.00;99959.50;5116738;28;20185;-57
2023/10/05 04:42:58;;;;;;;0.17;0.17;;;;;;;10.55;100.00;99955.59;5116466;28;20225;-57
2023/10/05 04:45:45;;;;;;;0.10;0.10;;;;;;;10.43;100.00;99958.03;5115331;28;20225;-57
2023/10/05 04:48:34;;;;;;;0.10;0.10;;;;;;;10.59;100.00;99966.88;5116627;28;20714;-57
2023/10/05 04:51:21;;;;;;;0.10;0.10;;;;;;;10.56;100.00;99951.16;5116505;28;20198;-57
2023/10/05 04:54:10;;;;;;;0.10;0.10;;;;;;;10.67;100.00;-17676.38;5116419;28;20205;-57
2023/10/05 04:57:07;;;;;;;0.10;0.10;;;;;;;10.62;100.00;99957.94;5116370;28;20240;-57
2023/10/05 05:00:48;;;;;;;0.10;0.10;;;;;;;10.55;100.00;99952.09;5116125;28;20194;-57
2023/10/05 05:03:17;;;;;;;0.10;0.10;;;;;;;10.48;100.00;99959.50;5115946;28;20299;-57
2023/10/05 05:06:11;;;;;;;0.10;0.10;;;;;;;10.50;100.00;99954.13;5116071;28;20240;-57
2023/10/05 05:09:00;;;;;;;0.10;0.10;;;;;;;10.50;100.00;99964.72;5116186;28;20272;-57
2023/10/05 05:11:47;;;;;;;0.10;0.10;;;;;;;10.73;100.00;99967.06;5116199;28;20210;-57
2023/10/05 05:14:37;;;;;;;0.10;0.10;;;;;;;10.70;100.00;99969.84;5115959;28;20190;-57
2023/10/05 05:17:26;;;;;;;0.20;0.20;;;;;;;10.84;100.00;99967.34;5114704;28;20256;-57
2023/10/05 05:20:15;;;;;;;0.10;0.10;;;;;;;10.69;100.00;99969.94;5116028;28;20202;-57
2023/10/05 05:23:04;;;;;;;0.10;0.10;;;;;;;10.60;100.00;99965.94;5115579;28;20225;-57
2023/10/05 05:25:52;;;;;;;0.10;0.10;;;;;;;10.57;100.00;99966.13;5115937;28;20675;-57
2023/10/05 05:28:39;;;;;;;0.10;0.10;;;;;;;10.46;100.00;99965.81;5115775;28;20193;-57
2023/10/05 05:31:27;;;;;;;0.10;0.10;;;;;;;10.40;100.00;99976.69;5114467;28;20197;-57
2023/10/05 05:34:14;;;;;;;0.10;0.10;;;;;;;10.41;100.00;99979.28;5115724;28;20198;-57
2023/10/05 05:37:01;;;;;;;0.10;0.10;;;;;;;10.43;100.00;99987.16;5115673;28;20190;-57
2023/10/05 05:39:49;;;;;;;0.10;0.10;;;;;;;10.59;100.00;99990.72;5114687;28;20556;-57
2023/10/05 05:42:36;;;;;;;0.10;0.10;;;;;;;10.51;100.00;99998.22;5115332;28;20214;-57
2023/10/05 05:45:23;;;;;;;0.10;0.10;;;;;;;10.56;100.00;99999.69;5115367;28;20198;-57
2023/10/05 05:48:13;;;;;;;0.10;0.10;;;;;;;10.56;100.00;99994.41;5115011;28;20244;-57
2023/10/05 05:51:06;;;;;;;0.10;0.10;;;;;;;10.65;100.00;99987.78;5115531;28;20331;-57
2023/10/05 05:53:53;;;;;;;0.10;0.10;;;;;;;10.60;100.00;99998.59;5114142;28;20256;-57
2023/10/05 05:56:42;;;;;;;0.10;0.10;;;;;;;10.55;100.00;99989.19;5115194;28;20239;-57
2023/10/05 05:59:29;;;;;;;0.10;0.10;;;;;;;10.70;100.00;99991.03;5115154;28;20282;-57
2023/10/05 06:02:16;;;;;;;0.10;0.10;;;;;;;10.74;100.00;99997.91;5113644;28;20696;-57
2023/10/05 06:05:08;;;;;;;0.10;0.10;;;;;;;10.74;100.00;99997.91;5115068;28;20672;-57
2023/10/05 06:07:55;;;;;;;0.10;0.10;;;;;;;10.78;100.00;100001.25;5115071;28;20236;-57
2023/10/05 06:10:43;;;;;;;0.10;0.10;;;;;;;10.68;100.00;99986.75;5114928;28;20232;-57
2023/10/05 06:13:36;;;;;;;0.10;0.10;;;;;;;10.77;100.00;99989.78;5114635;28;20260;-57
2023/10/05 06:16:23;;;;;;;0.10;0.10;;;;;;;10.79;100.00;99998.53;5113545;28;20196;-57
2023/10/05 06:19:10;;;;;;;0.10;0.10;;;;;;;10.81;100.00;99988.72;5114678;28;20210;-57
2023/10/05 06:21:57;;;;;;;0.10;0.10;;;;;;;10.97;100.00;99991.41;5114780;28;20197;-57
2023/10/05 06:24:44;;;;;;;0.03;0.03;;;;;;;11.42;100.00;100001.38;5114745;28;20271;-57
2023/10/05 06:27:31;;;;;;;0.10;0.10;;;;;;;11.22;100.00;99996.28;5114411;28;20255;-57
2023/10/05 06:30:20;;;;;;;0.10;0.10;;;;;;;11.25;100.00;99992.63;5114609;28;20202;-57
2023/10/05 06:33:08;;;;;;;0.10;0.10;;;;;;;11.21;100.00;99999.88;5114523;28;20190;-57
2023/10/05 06:35:55;;;;;;;0.10;0.10;;;;;;;11.21;100.00;100002.53;5114424;28;20198;-57
2023/10/05 06:38:43;;;;;;;0.10;0.10;;;;;;;11.17;100.00;99995.66;5114421;28;20569;-57
2023/10/05 06:41:29;;;;;;;0.10;0.10;;;;;;;11.29;100.00;99995.03;5114318;28;20198;-57
2023/10/05 06:44:16;;;;;;;0.10;0.10;;;;;;;11.28;100.00;100001.25;5114244;28;20375;-57
2023/10/05 06:47:05;;;;;;;0.10;0.10;;;;;;;11.50;100.00;100005.44;5113039;28;20782;-57
2023/10/05 06:49:52;;;;;;;0.10;0.10;;;;;;;11.47;100.00;100007.28;5114301;28;20349;-57
2023/10/05 06:52:42;;;;;;;0.10;0.10;;;;;;;11.51;100.00;99999.19;5114103;28;20232;-57
2023/10/05 06:55:29;;;;;;;0.10;0.10;;;;;;;11.57;100.00;99993.53;5114225;28;20182;-57
2023/10/05 06:58:16;;;;;;;0.10;0.10;;;;;;;11.50;100.00;99993.03;5114097;28;20190;-56
2023/10/05 07:01:03;;;;;;;0.10;0.10;;;;;;;11.87;100.00;99996.31;5112518;28;20186;-57
2023/10/05 07:03:53;;;;;;;0.10;0.10;;;;;;;11.97;100.00;99997.53;5113983;28;20276;-58
2023/10/05 07:06:41;;;;;;;0.10;0.10;;;;;;;11.92;100.00;99996.91;5114040;28;20198;-57
2023/10/05 07:09:28;;;;;;;0.10;0.10;;;;;;;11.86;100.00;99994.59;5113614;28;20225;-57
2023/10/05 07:12:14;;;;;;;0.10;0.10;;;;;;;11.95;100.00;99999.41;5113914;28;20695;-57
2023/10/05 07:15:02;;;;;;;0.10;0.10;;;;;;;11.82;100.00;100001.88;5113978;28;20221;-57
2023/10/05 07:17:50;;;;;;;0.10;0.10;;;;;;;11.88;100.00;100006.88;5113158;28;20236;-57
2023/10/05 07:20:41;;;;;;;0.10;0.10;;;;;;;11.93;100.00;100012.75;5113632;28;20186;-58
2023/10/05 07:23:29;;;;;;;0.10;0.10;;;;;;;11.97;100.00;100013.47;5113574;28;20337;-57
2023/10/05 07:26:15;;;;;;;0.10;0.10;;;;;;;12.10;100.00;100010.97;5113703;28;20201;-57
2023/10/05 07:29:04;;;;;;;0.10;0.10;;;;;;;12.26;100.00;100025.97;5113554;28;20214;-57
2023/10/05 07:32:06;;;;;;;0.10;0.10;;;;;;;12.32;100.00;100030.03;5112166;28;20653;-57
2023/10/05 07:34:54;;;;;;;0.10;0.10;;;;;;;12.47;100.00;100029.19;5113518;28;20680;-57
2023/10/05 07:37:42;;;;;;;0.10;0.10;;;;;;;12.67;100.00;100028.00;5113392;28;20198;-57
2023/10/05 07:40:29;;;;;;;0.10;0.10;;;;;;;12.76;100.00;100018.66;5112299;28;20312;-57
2023/10/05 07:43:16;;;;;;;0.10;0.10;;;;;;;13.04;100.00;100021.38;5113236;28;20284;-57
2023/10/05 07:46:06;;;;;;;0.10;0.10;;;;;;;13.32;100.00;100017.91;5110910;28;20194;-57
2023/10/05 07:48:53;;;;;;;0.10;0.10;;;;;;;13.40;100.00;100012.94;5113204;28;20271;-57
2023/10/05 07:51:40;;;;;;;0.10;0.10;;;;;;;13.57;100.00;100003.94;5112363;28;20403;-57
2023/10/05 07:54:31;;;;;;;0.10;0.10;;;;;;;13.83;100.00;100014.75;5113233;28;20448;-57
2023/10/05 07:57:17;;;;;;;0.10;0.10;;;;;;;13.65;100.00;100008.78;5113016;28;20186;-57
2023/10/05 08:00:11;;;;;;;0.10;0.10;;;;;;;13.93;100.00;100018.53;5113385;28;20244;-57
2023/10/05 08:02:58;;;;;;;0.10;0.10;;;;;;;14.09;100.00;100007.72;5113137;28;20218;-57
2023/10/05 08:05:45;;;;;;;0.10;0.10;;;;;;;14.00;100.00;99998.53;5113297;28;20194;-57
2023/10/05 08:08:34;;;;;;;0.10;0.10;;;;;;;13.90;100.00;100008.09;5112889;28;20279;-57
2023/10/05 08:11:23;;;;;;;0.10;0.10;;;;;;;14.09;100.00;99997.06;5112280;28;20193;-58
2023/10/05 08:14:10;;;;;;;0.10;0.10;;;;;;;14.08;100.00;100008.69;5117416;28;20198;-57
2023/10/05 08:16:58;;;;;;;0.10;0.10;;;;;;;14.20;100.00;100005.25;5115817;28;20197;-57
2023/10/05 08:19:45;;;;;;;0.20;0.20;;;;;;;14.19;100.00;100012.38;5117213;28;20248;-58
2023/10/05 08:22:33;;;;;;;0.10;0.10;;;;;;;14.22;100.00;100003.31;5117095;28;20186;-57
2023/10/05 08:25:22;;;;;;;0.10;0.10;;;;;;;14.65;100.00;100012.00;5117162;28;20247;-57
2023/10/05 08:28:10;;;;;;;0.10;0.10;;;;;;;14.70;100.00;100009.91;5116960;28;20719;-57
2023/10/05 08:31:06;;;;;;;0.10;0.10;;;;;;;14.96;100.00;100002.81;5115734;28;20275;-57
2023/10/05 08:33:54;;;;;;;0.10;0.10;;;;;;;15.20;100.00;100000.25;5116990;28;20197;-58
2023/10/05 08:36:41;;;;;;;0.10;0.10;;;;;;;15.16;100.00;99996.94;5116746;28;20198;-58
2023/10/05 08:39:30;;;;;;;0.10;0.10;;;;;;;15.41;100.00;100001.41;5116734;28;20194;-57
2023/10/05 08:42:16;;;;;;;0.10;0.10;;;;;;;15.41;100.00;100009.41;5116740;28;20208;-58
2023/10/05 08:45:06;;;;;;;0.10;0.10;;;;;;;15.35;100.00;100009.03;5116390;28;20244;-57
2023/10/05 08:47:55;;;;;;;0.10;0.10;;;;;;;15.53;100.00;100004.16;5116687;28;20263;-58
2023/10/05 08:50:44;;;;;;;0.10;0.10;;;;;;;16.25;100.00;100005.19;5116477;28;20679;-57
2023/10/05 08:53:30;;;;;;;0.10;0.10;;;;;;;16.16;100.00;100011.22;5116004;28;20201;-58
2023/10/05 08:56:18;;;;;;;0.10;0.10;;;;;;;16.40;100.00;100008.53;5116571;28;20260;-58
2023/10/05 08:59:07;;;;;;;0.10;0.10;;;;;;;16.44;100.00;100013.56;5116482;28;20229;-57
2023/10/05 09:01:59;;;;;;;0.10;0.10;;;;;;;16.34;100.00;100011.69;5114820;28;20198;-57
2023/10/05 09:04:51;;;;;;;0.10;0.10;;;;;;;16.66;100.00;100003.91;5116015;28;20798;-57
2023/10/05 09:07:38;;;;;;;0.10;0.10;;;;;;;16.52;100.00;100003.16;5116060;28;20198;-57
2023/10/05 09:10:26;;;;;;;0.10;0.10;;;;;;;16.80;100.00;100009.97;5115923;28;20198;-57
2023/10/05 09:13:14;;;;;;;0.20;0.20;;;;;;;16.60;100.00;100015.97;5115874;28;20202;-57
2023/10/05 09:16:06;;;;;;;0.10;0.10;;;;;;;17.12;100.00;100018.19;5114486;28;20194;-58
2023/10/05 09:18:54;;;;;;;0.10;0.10;;;;;;;17.21;100.00;100007.75;5115887;28;20711;-57
2023/10/05 09:21:50;;;;;;;0.10;0.10;;;;;;;17.53;100.00;100021.28;5114760;28;20197;-57
2023/10/05 09:24:42;;;;;;;0.10;0.10;;;;;;;18.22;100.00;100013.94;5114372;28;20218;-57
2023/10/05 09:27:47;;;;;;;0.10;0.10;;;;;;;18.69;100.00;100004.66;5116022;28;20187;-58
2023/10/05 09:30:34;;;;;;;0.10;0.10;;;;;;;17.68;100.00;100006.69;5114330;28;20202;-58
2023/10/05 09:33:21;;;;;;;0.10;0.10;;;;;;;17.13;100.00;100009.19;5115693;28;20194;-57
2023/10/05 09:36:19;;;;;;;0.10;0.10;;;;;;;16.98;100.00;100021.06;5115553;28;20637;-57
2023/10/05 09:39:11;;;;;;;0.10;0.10;;;;;;;16.09;100.00;100018.81;5115517;28;20186;-57
2023/10/05 09:42:01;;;;;;;0.10;0.10;;;;;;;16.42;100.00;100018.19;5115416;28;20193;-57
2023/10/05 09:44:52;;;;;;;0.10;0.10;;;;;;;16.98;100.00;100020.22;5115172;28;20210;-58
2023/10/05 09:47:40;;;;;;;0.10;0.10;;;;;;;16.98;96.59;100020.22;5113889;28;20186;-58
2023/10/05 09:50:28;;;;;;;0.10;0.10;;;;;;;17.41;100.00;100015.94;5115303;28;20186;-58
2023/10/05 09:53:19;;;;;;;0.10;0.10;;;;;;;18.03;100.00;100014.59;5115409;28;20208;-57
2023/10/05 09:56:05;;;;;;;0.10;0.10;;;;;;;19.08;100.00;100013.84;5115101;28;20358;-58
2023/10/05 09:58:53;;;;;;;0.10;0.10;;;;;;;19.08;100.00;100013.84;5115137;28;20198;-58
2023/10/05 10:01:40;;;;;;;0.10;0.10;;;;;;;20.36;100.00;100027.69;5113859;28;20248;-58
2023/10/05 10:04:36;;;;;;;0.10;0.10;;;;;;;20.52;100.00;100023.50;5114759;28;20218;-57
2023/10/05 10:07:23;;;;;;;0.10;0.10;;;;;;;19.78;100.00;100019.47;5115177;28;20201;-57
2023/10/05 10:10:13;;;;;;;0.10;0.10;;;;;;;18.45;100.00;100012.06;5114668;28;20222;-57
2023/10/05 10:13:04;;;;;;;0.10;0.10;;;;;;;18.33;100.00;100015.72;5114788;28;20189;-57
2023/10/05 10:15:53;;;;;;;0.10;0.10;;;;;;;18.18;100.00;100015.19;5113548;28;20255;-57
2023/10/05 10:18:43;;;;;;;0.10;0.10;;;;;;;18.13;100.00;100023.59;5114821;28;20240;-57
2023/10/05 10:21:34;;;;;;;0.10;0.10;;;;;;;17.97;100.00;100020.47;5114932;28;20194;-57
2023/10/05 10:24:21;;;;;;;0.10;0.10;;;;;;;17.83;100.00;100016.19;5114653;28;20214;-57
2023/10/05 10:27:11;;;;;;;0.10;0.10;;;;;;;18.18;100.00;100016.03;5114678;28;20198;-57
2023/10/05 10:30:04;;;;;;;0.10;0.10;;;;;;;18.30;100.00;100016.84;5114686;28;20584;-58
2023/10/05 10:33:27;;;;;;;0.10;0.10;;;;;;;18.53;100.00;100025.69;5114612;28;20303;-57
2023/10/05 10:36:18;;;;;;;0.10;0.10;;;;;;;18.05;100.00;100023.38;5113987;28;20715;-57
2023/10/05 10:39:23;;;;;;;0.10;0.10;;;;;;;17.70;100.00;100023.53;5114435;28;20240;-57
2023/10/05 10:42:18;;;;;;;0.10;0.10;;;;;;;17.85;100.00;100027.63;5114265;28;20251;-57
2023/10/05 10:45:11;;;;;;;0.10;0.10;;;;;;;17.69;100.00;100029.84;5114039;28;20221;-57
2023/10/05 10:47:58;;;;;;;0.10;0.10;;;;;;;17.40;100.00;100022.25;5114304;28;20267;-57
2023/10/05 10:50:45;;;;;;;0.20;0.20;;;;;;;17.16;100.00;100024.16;5114193;28;20382;-57
2023/10/05 10:53:37;;;;;;;0.10;0.10;;;;;;;16.96;100.00;100027.53;5114265;28;20190;-57
2023/10/05 10:56:34;;;;;;;0.10;0.10;;;;;;;16.64;100.00;100025.44;5114051;28;20284;-58
2023/10/05 10:59:26;;;;;;;0.10;0.10;;;;;;;16.99;100.00;100027.31;5114047;28;20190;-57
2023/10/05 11:02:17;;;;;;;0.10;0.10;;;;;;;17.30;100.00;100025.78;5112642;28;20681;-57
2023/10/05 11:05:14;;;;;;;0.10;0.10;;;;;;;17.05;100.00;100014.28;5113704;28;20411;-57
2023/10/05 11:08:01;;;;;;;0.10;0.10;;;;;;;17.19;100.00;100012.38;5113729;28;21228;-57
2023/10/05 11:11:00;;;;;;;0.10;0.10;;;;;;;17.04;100.00;100014.41;5113844;28;20303;-57
2023/10/05 11:13:54;;;;;;;0.10;0.10;;;;;;;17.04;100.00;10229.72;5113582;28;20209;-57
2023/10/05 11:16:44;;;;;;;0.10;0.10;;;;;;;16.91;100.00;100016.34;5112466;28;20236;-57
2023/10/05 11:19:37;;;;;;;0.10;0.10;;;;;;;16.92;100.00;100013.53;5113614;28;20186;-57
2023/10/05 11:22:24;;;;;;;0.10;0.10;;;;;;;16.67;100.00;100019.84;5112638;28;20236;-57
2023/10/05 11:25:16;;;;;;;0.10;0.10;;;;;;;16.86;100.00;100012.16;5113535;28;20226;-57
2023/10/05 11:28:08;;;;;;;0.10;0.10;;;;;;;16.79;100.00;100012.75;5113464;28;20744;-57
2023/10/05 11:30:55;;;;;;;0.10;0.10;;;;;;;16.84;100.00;100014.13;5112211;28;20264;-57
2023/10/05 11:34:08;;;;;;;0.10;0.10;;;;;;;16.77;100.00;100014.69;5113460;28;20197;-57
2023/10/05 11:37:16;;;;;;;0.10;0.10;;;;;;;16.76;100.00;100011.16;5113136;28;20198;-57
2023/10/05 11:40:08;;;;;;;0.10;0.10;;;;;;;16.79;100.00;100002.94;5113512;28;20190;-58
2023/10/05 11:42:57;;;;;;;0.10;0.10;;;;;;;17.01;100.00;100012.81;5113346;28;20189;-58
2023/10/05 11:46:12;;;;;;;0.10;0.10;;;;;;;16.80;100.00;100001.94;5111805;28;20272;-57
2023/10/05 11:49:04;;;;;;;0.10;0.10;;;;;;;16.98;100.00;99998.81;5113294;28;20225;-57
2023/10/05 11:51:56;;;;;;;0.10;0.10;;;;;;;17.13;100.00;99994.97;5113241;28;20267;-57
2023/10/05 11:54:43;;;;;;;0.10;0.10;;;;;;;17.27;100.00;100001.91;5113238;28;20271;-58
2023/10/05 11:57:32;;;;;;;0.10;0.10;;;;;;;17.30;100.00;99993.66;5113222;28;20268;-57
2023/10/05 12:00:19;;;;;;;0.10;0.10;;;;;;;17.22;100.00;99988.88;5112078;28;20224;-58
2023/10/05 12:03:09;;;;;;;0.10;0.10;;;;;;;17.10;100.00;99984.50;5113291;28;20320;-57
2023/10/05 12:06:00;;;;;;;0.10;0.10;;;;;;;17.28;100.00;99977.72;5112995;28;20242;-58
2023/10/05 12:08:48;;;;;;;0.10;0.10;;;;;;;17.23;100.00;99971.84;5112994;28;20230;-57
2023/10/05 12:11:36;;;;;;;0.20;0.20;;;;;;;17.49;100.00;99966.25;5113096;28;20198;-57
2023/10/05 12:14:23;;;;;;;0.10;0.10;;;;;;;17.55;100.00;99971.97;5112895;28;20259;-57
2023/10/05 12:17:10;;;;;;;0.10;0.10;;;;;;;17.62;100.00;99972.34;5111653;28;20194;-58
2023/10/05 12:19:59;;;;;;;0.10;0.10;;;;;;;17.49;100.00;99974.31;5113025;28;20672;-57
2023/10/05 12:22:49;;;;;;;0.10;0.10;;;;;;;17.52;100.00;99964.19;5113082;28;20198;-58
2023/10/05 12:25:37;;;;;;;0.10;0.10;;;;;;;17.65;100.00;99964.88;5111895;28;20222;-57
2023/10/05 12:28:24;;;;;;;0.10;0.10;;;;;;;17.81;100.00;99961.03;5112656;28;20644;-58
2023/10/05 12:31:12;;;;;;;0.10;0.10;;;;;;;18.01;100.00;99968.28;5111468;28;20271;-57
2023/10/05 12:34:00;;;;;;;0.10;0.10;;;;;;;18.10;100.00;99975.56;5112867;28;20293;-57
2023/10/05 12:36:56;;;;;;;0.10;0.10;;;;;;;18.14;100.00;99971.66;5112891;28;20346;-57
2023/10/05 12:39:43;;;;;;;0.10;0.10;;;;;;;18.05;100.00;99960.84;5112520;28;20198;-58
2023/10/05 12:42:31;;;;;;;0.10;0.10;;;;;;;17.90;100.00;99968.31;5112799;28;20190;-58
2023/10/05 12:45:20;;;;;;;0.10;0.10;;;;;;;17.92;100.00;99985.13;5111306;28;20312;-57
2023/10/05 12:48:07;;;;;;;0.10;0.10;;;;;;;17.80;100.00;99978.94;5112878;28;20296;-58
2023/10/05 12:50:54;;;;;;;0.10;0.10;;;;;;;17.34;100.00;99979.88;5112841;28;20264;-57
2023/10/05 12:53:41;;;;;;;0.10;0.10;;;;;;;17.59;100.00;99975.28;5112803;28;20199;-57
2023/10/05 12:56:28;;;;;;;0.10;0.10;;;;;;;17.56;100.00;99987.06;5112708;28;20199;-58
2023/10/05 12:59:16;;;;;;;0.10;0.10;;;;;;;17.53;100.00;99978.44;5115358;28;20193;-58
2023/10/05 13:02:14;;;;;;;0.10;0.10;;;;;;;17.57;100.00;99991.47;5114032;28;20187;-58
2023/10/05 13:05:05;;;;;;;0.10;0.10;;;;;;;17.84;100.00;99984.88;5116305;28;20189;-58
2023/10/05 13:08:12;;;;;;;0.10;0.10;;;;;;;17.69;100.00;99979.81;5116008;28;20198;-57